sensor_id;sensor_type;location;lat;lon;timestamp;P1;durP1;ratioP1;P2;durP2;ratioP2
21820;SDS011;11073;48.586;12.066;2022-08-03T00:00:39;1.67;;;1.58;;
21820;SDS011;11073;48.586;12.066;2022-08-03T00:03:08;4.70;;;1.60;;
21820;SDS011;11073;48.586;12.066;2022-08-03T00:05:37;6.20;;;3.10;;
21820;SDS011;11073;48.586;12.066;2022-08-03T00:08:26;3.45;;;2.10;;
21820;SDS011;11073;48.586;12.066;2022-08-03T00:10:55;3.05;;;1.45;;
21820;SDS011;11073;48.586;12.066;2022-08-03T00:13:25;3.35;;;1.73;;
21820;SDS011;11073;48.586;12.066;2022-08-03T00:15:54;2.72;;;1.65;;
21820;SDS011;11073;48.586;12.066;2022-08-03T00:18:22;2.42;;;1.48;;
21820;SDS011;11073;48.586;12.066;2022-08-03T00:20:52;2.97;;;2.08;;
21820;SDS011;11073;48.586;12.066;2022-08-03T00:23:20;2.33;;;1.40;;
21820;SDS011;11073;48.586;12.066;2022-08-03T00:25:49;1.58;;;1.48;;
21820;SDS011;11073;48.586;12.066;2022-08-03T00:28:18;2.10;;;1.90;;
21820;SDS011;11073;48.586;12.066;2022-08-03T00:30:48;2.85;;;1.90;;
21820;SDS011;11073;48.586;12.066;2022-08-03T00:33:17;2.75;;;2.08;;
21820;SDS011;11073;48.586;12.066;2022-08-03T00:35:48;2.72;;;2.03;;
21820;SDS011;11073;48.586;12.066;2022-08-03T00:38:17;5.18;;;1.75;;
21820;SDS011;11073;48.586;12.066;2022-08-03T00:40:46;2.17;;;1.60;;
21820;SDS011;11073;48.586;12.066;2022-08-03T00:43:15;3.05;;;1.60;;
21820;SDS011;11073;48.586;12.066;2022-08-03T00:45:44;3.67;;;1.83;;
21820;SDS011;11073;48.586;12.066;2022-08-03T00:48:17;1.90;;;1.70;;
21820;SDS011;11073;48.586;12.066;2022-08-03T00:50:59;2.35;;;1.60;;
21820;SDS011;11073;48.586;12.066;2022-08-03T00:53:47;4.47;;;1.70;;
21820;SDS011;11073;48.586;12.066;2022-08-03T00:56:16;2.35;;;1.92;;
21820;SDS011;11073;48.586;12.066;2022-08-03T00:58:45;3.10;;;1.80;;
21820;SDS011;11073;48.586;12.066;2022-08-03T01:01:14;3.85;;;2.00;;
21820;SDS011;11073;48.586;12.066;2022-08-03T01:03:45;2.47;;;1.63;;
21820;SDS011;11073;48.586;12.066;2022-08-03T01:06:15;2.40;;;1.80;;
21820;SDS011;11073;48.586;12.066;2022-08-03T01:08:46;2.83;;;2.00;;
21820;SDS011;11073;48.586;12.066;2022-08-03T01:11:22;2.30;;;1.52;;
21820;SDS011;11073;48.586;12.066;2022-08-03T01:14:26;2.35;;;1.70;;
21820;SDS011;11073;48.586;12.066;2022-08-03T01:17:02;3.58;;;1.70;;
21820;SDS011;11073;48.586;12.066;2022-08-03T01:19:44;5.38;;;2.00;;
21820;SDS011;11073;48.586;12.066;2022-08-03T01:22:22;2.97;;;1.85;;
21820;SDS011;11073;48.586;12.066;2022-08-03T01:25:05;2.25;;;1.88;;
21820;SDS011;11073;48.586;12.066;2022-08-03T01:27:43;3.47;;;1.77;;
21820;SDS011;11073;48.586;12.066;2022-08-03T01:30:23;2.47;;;1.60;;
21820;SDS011;11073;48.586;12.066;2022-08-03T01:32:57;2.42;;;2.00;;
21820;SDS011;11073;48.586;12.066;2022-08-03T01:35:31;3.38;;;1.60;;
21820;SDS011;11073;48.586;12.066;2022-08-03T01:38:06;2.40;;;1.70;;
21820;SDS011;11073;48.586;12.066;2022-08-03T01:40:39;6.93;;;1.70;;
21820;SDS011;11073;48.586;12.066;2022-08-03T01:43:12;2.80;;;1.50;;
21820;SDS011;11073;48.586;12.066;2022-08-03T01:46:07;2.30;;;1.55;;
21820;SDS011;11073;48.586;12.066;2022-08-03T01:48:37;4.20;;;1.70;;
21820;SDS011;11073;48.586;12.066;2022-08-03T01:51:09;4.07;;;2.05;;
21820;SDS011;11073;48.586;12.066;2022-08-03T01:53:39;3.97;;;1.58;;
21820;SDS011;11073;48.586;12.066;2022-08-03T01:56:10;2.13;;;1.75;;
21820;SDS011;11073;48.586;12.066;2022-08-03T01:58:39;2.70;;;1.88;;
21820;SDS011;11073;48.586;12.066;2022-08-03T02:01:12;4.00;;;1.70;;
21820;SDS011;11073;48.586;12.066;2022-08-03T02:03:43;2.78;;;2.10;;
21820;SDS011;11073;48.586;12.066;2022-08-03T02:06:28;4.13;;;2.10;;
21820;SDS011;11073;48.586;12.066;2022-08-03T02:09:20;2.67;;;1.67;;
21820;SDS011;11073;48.586;12.066;2022-08-03T02:11:50;2.97;;;1.95;;
21820;SDS011;11073;48.586;12.066;2022-08-03T02:14:21;4.00;;;1.80;;
21820;SDS011;11073;48.586;12.066;2022-08-03T02:16:52;2.10;;;1.90;;
21820;SDS011;11073;48.586;12.066;2022-08-03T02:19:22;2.42;;;1.60;;
21820;SDS011;11073;48.586;12.066;2022-08-03T02:21:57;2.42;;;1.80;;
21820;SDS011;11073;48.586;12.066;2022-08-03T02:24:28;3.92;;;2.10;;
21820;SDS011;11073;48.586;12.066;2022-08-03T02:26:58;3.70;;;1.83;;
21820;SDS011;11073;48.586;12.066;2022-08-03T02:29:30;2.00;;;1.80;;
21820;SDS011;11073;48.586;12.066;2022-08-03T02:32:11;2.47;;;1.63;;
21820;SDS011;11073;48.586;12.066;2022-08-03T02:34:45;3.28;;;2.10;;
21820;SDS011;11073;48.586;12.066;2022-08-03T02:37:18;1.92;;;1.60;;
21820;SDS011;11073;48.586;12.066;2022-08-03T02:39:49;1.83;;;1.65;;
21820;SDS011;11073;48.586;12.066;2022-08-03T02:42:23;3.83;;;1.73;;
21820;SDS011;11073;48.586;12.066;2022-08-03T02:44:56;1.98;;;1.73;;
21820;SDS011;11073;48.586;12.066;2022-08-03T02:47:29;3.55;;;2.00;;
21820;SDS011;11073;48.586;12.066;2022-08-03T02:50:20;2.90;;;2.08;;
21820;SDS011;11073;48.586;12.066;2022-08-03T02:52:51;4.35;;;1.95;;
21820;SDS011;11073;48.586;12.066;2022-08-03T02:55:20;3.22;;;1.80;;
21820;SDS011;11073;48.586;12.066;2022-08-03T02:57:51;2.67;;;1.83;;
21820;SDS011;11073;48.586;12.066;2022-08-03T03:00:21;5.80;;;2.40;;
21820;SDS011;11073;48.586;12.066;2022-08-03T03:02:57;1.88;;;1.77;;
21820;SDS011;11073;48.586;12.066;2022-08-03T03:05:27;4.10;;;2.13;;
21820;SDS011;11073;48.586;12.066;2022-08-03T03:08:18;2.95;;;2.08;;
21820;SDS011;11073;48.586;12.066;2022-08-03T03:10:56;2.58;;;1.95;;
21820;SDS011;11073;48.586;12.066;2022-08-03T03:13:26;5.90;;;2.05;;
21820;SDS011;11073;48.586;12.066;2022-08-03T03:15:58;3.70;;;2.15;;
21820;SDS011;11073;48.586;12.066;2022-08-03T03:18:30;2.55;;;1.92;;
21820;SDS011;11073;48.586;12.066;2022-08-03T03:21:00;6.30;;;1.98;;
21820;SDS011;11073;48.586;12.066;2022-08-03T03:23:31;1.92;;;1.73;;
21820;SDS011;11073;48.586;12.066;2022-08-03T03:26:02;1.77;;;1.67;;
21820;SDS011;11073;48.586;12.066;2022-08-03T03:28:32;1.90;;;1.67;;
21820;SDS011;11073;48.586;12.066;2022-08-03T03:31:03;3.17;;;1.67;;
21820;SDS011;11073;48.586;12.066;2022-08-03T03:33:33;2.58;;;1.63;;
21820;SDS011;11073;48.586;12.066;2022-08-03T03:36:04;2.05;;;1.83;;
21820;SDS011;11073;48.586;12.066;2022-08-03T03:38:33;2.20;;;1.70;;
21820;SDS011;11073;48.586;12.066;2022-08-03T03:41:03;5.22;;;2.03;;
21820;SDS011;11073;48.586;12.066;2022-08-03T03:43:32;3.35;;;1.90;;
21820;SDS011;11073;48.586;12.066;2022-08-03T03:46:01;2.75;;;1.95;;
21820;SDS011;11073;48.586;12.066;2022-08-03T03:48:30;2.38;;;1.63;;
21820;SDS011;11073;48.586;12.066;2022-08-03T03:51:01;3.08;;;1.88;;
21820;SDS011;11073;48.586;12.066;2022-08-03T03:53:30;3.53;;;2.15;;
21820;SDS011;11073;48.586;12.066;2022-08-03T03:55:59;4.05;;;1.98;;
21820;SDS011;11073;48.586;12.066;2022-08-03T03:58:29;4.03;;;2.10;;
21820;SDS011;11073;48.586;12.066;2022-08-03T04:00:59;2.90;;;1.60;;
21820;SDS011;11073;48.586;12.066;2022-08-03T04:03:28;5.85;;;2.05;;
21820;SDS011;11073;48.586;12.066;2022-08-03T04:05:57;3.05;;;1.98;;
21820;SDS011;11073;48.586;12.066;2022-08-03T04:08:45;7.13;;;2.33;;
21820;SDS011;11073;48.586;12.066;2022-08-03T04:11:33;3.97;;;2.05;;
21820;SDS011;11073;48.586;12.066;2022-08-03T04:14:06;4.88;;;1.90;;
21820;SDS011;11073;48.586;12.066;2022-08-03T04:16:39;1.90;;;1.60;;
21820;SDS011;11073;48.586;12.066;2022-08-03T04:19:11;3.58;;;1.83;;
21820;SDS011;11073;48.586;12.066;2022-08-03T04:21:49;2.22;;;1.73;;
21820;SDS011;11073;48.586;12.066;2022-08-03T04:24:25;6.85;;;2.03;;
21820;SDS011;11073;48.586;12.066;2022-08-03T04:26:57;3.22;;;1.95;;
21820;SDS011;11073;48.586;12.066;2022-08-03T04:29:28;2.25;;;1.98;;
21820;SDS011;11073;48.586;12.066;2022-08-03T04:32:00;2.70;;;1.67;;
21820;SDS011;11073;48.586;12.066;2022-08-03T04:34:29;3.53;;;1.45;;
21820;SDS011;11073;48.586;12.066;2022-08-03T04:36:59;3.47;;;1.50;;
21820;SDS011;11073;48.586;12.066;2022-08-03T04:39:31;5.05;;;2.10;;
21820;SDS011;11073;48.586;12.066;2022-08-03T04:42:02;4.15;;;1.98;;
21820;SDS011;11073;48.586;12.066;2022-08-03T04:44:35;3.80;;;2.10;;
21820;SDS011;11073;48.586;12.066;2022-08-03T04:47:06;3.40;;;2.38;;
21820;SDS011;11073;48.586;12.066;2022-08-03T04:49:36;2.67;;;2.42;;
21820;SDS011;11073;48.586;12.066;2022-08-03T04:52:06;2.53;;;2.33;;
21820;SDS011;11073;48.586;12.066;2022-08-03T04:54:40;2.83;;;2.20;;
21820;SDS011;11073;48.586;12.066;2022-08-03T04:57:16;3.13;;;2.53;;
21820;SDS011;11073;48.586;12.066;2022-08-03T04:59:49;3.78;;;2.20;;
21820;SDS011;11073;48.586;12.066;2022-08-03T05:02:28;2.67;;;2.45;;
21820;SDS011;11073;48.586;12.066;2022-08-03T05:04:57;3.65;;;2.30;;
21820;SDS011;11073;48.586;12.066;2022-08-03T05:07:26;3.15;;;2.33;;
21820;SDS011;11073;48.586;12.066;2022-08-03T05:10:05;3.60;;;2.50;;
21820;SDS011;11073;48.586;12.066;2022-08-03T05:12:43;3.38;;;3.08;;
21820;SDS011;11073;48.586;12.066;2022-08-03T05:15:12;4.72;;;3.08;;
21820;SDS011;11073;48.586;12.066;2022-08-03T05:17:42;4.07;;;3.55;;
21820;SDS011;11073;48.586;12.066;2022-08-03T05:20:11;3.70;;;3.35;;
21820;SDS011;11073;48.586;12.066;2022-08-03T05:22:42;6.72;;;4.38;;
21820;SDS011;11073;48.586;12.066;2022-08-03T05:25:12;8.25;;;4.13;;
21820;SDS011;11073;48.586;12.066;2022-08-03T05:27:46;11.48;;;4.05;;
21820;SDS011;11073;48.586;12.066;2022-08-03T05:30:15;18.27;;;4.72;;
21820;SDS011;11073;48.586;12.066;2022-08-03T05:33:01;33.65;;;6.47;;
21820;SDS011;11073;48.586;12.066;2022-08-03T05:35:30;27.40;;;5.72;;
21820;SDS011;11073;48.586;12.066;2022-08-03T05:38:21;20.60;;;4.80;;
21820;SDS011;11073;48.586;12.066;2022-08-03T05:40:56;9.07;;;4.60;;
21820;SDS011;11073;48.586;12.066;2022-08-03T05:43:45;13.82;;;5.28;;
21820;SDS011;11073;48.586;12.066;2022-08-03T05:46:14;9.85;;;4.60;;
21820;SDS011;11073;48.586;12.066;2022-08-03T05:48:42;8.32;;;4.82;;
21820;SDS011;11073;48.586;12.066;2022-08-03T05:51:11;9.40;;;5.43;;
21820;SDS011;11073;48.586;12.066;2022-08-03T05:53:39;11.30;;;5.40;;
21820;SDS011;11073;48.586;12.066;2022-08-03T05:56:10;12.13;;;4.75;;
21820;SDS011;11073;48.586;12.066;2022-08-03T05:58:43;10.07;;;4.63;;
21820;SDS011;11073;48.586;12.066;2022-08-03T06:01:13;12.00;;;4.68;;
21820;SDS011;11073;48.586;12.066;2022-08-03T06:03:42;7.90;;;4.45;;
21820;SDS011;11073;48.586;12.066;2022-08-03T06:06:11;14.88;;;4.70;;
21820;SDS011;11073;48.586;12.066;2022-08-03T06:08:39;6.75;;;4.43;;
21820;SDS011;11073;48.586;12.066;2022-08-03T06:11:10;7.95;;;4.53;;
21820;SDS011;11073;48.586;12.066;2022-08-03T06:13:39;5.13;;;4.15;;
21820;SDS011;11073;48.586;12.066;2022-08-03T06:16:07;4.85;;;3.90;;
21820;SDS011;11073;48.586;12.066;2022-08-03T06:18:36;6.05;;;4.05;;
21820;SDS011;11073;48.586;12.066;2022-08-03T06:21:07;5.55;;;4.30;;
21820;SDS011;11073;48.586;12.066;2022-08-03T06:23:42;4.90;;;4.40;;
21820;SDS011;11073;48.586;12.066;2022-08-03T06:26:23;5.70;;;4.25;;
21820;SDS011;11073;48.586;12.066;2022-08-03T06:28:54;5.15;;;4.65;;
21820;SDS011;11073;48.586;12.066;2022-08-03T06:31:23;5.43;;;4.55;;
21820;SDS011;11073;48.586;12.066;2022-08-03T06:34:00;8.63;;;4.53;;
21820;SDS011;11073;48.586;12.066;2022-08-03T06:36:50;7.47;;;4.53;;
21820;SDS011;11073;48.586;12.066;2022-08-03T06:39:19;4.40;;;3.65;;
21820;SDS011;11073;48.586;12.066;2022-08-03T06:41:51;5.45;;;3.92;;
21820;SDS011;11073;48.586;12.066;2022-08-03T06:44:21;5.53;;;4.18;;
21820;SDS011;11073;48.586;12.066;2022-08-03T06:46:50;5.05;;;4.10;;
21820;SDS011;11073;48.586;12.066;2022-08-03T06:49:19;5.70;;;3.45;;
21820;SDS011;11073;48.586;12.066;2022-08-03T06:51:47;6.60;;;3.70;;
21820;SDS011;11073;48.586;12.066;2022-08-03T06:54:33;6.43;;;3.95;;
21820;SDS011;11073;48.586;12.066;2022-08-03T06:57:04;6.45;;;3.38;;
21820;SDS011;11073;48.586;12.066;2022-08-03T06:59:34;8.18;;;3.53;;
21820;SDS011;11073;48.586;12.066;2022-08-03T07:02:22;8.93;;;3.70;;
21820;SDS011;11073;48.586;12.066;2022-08-03T07:04:54;5.47;;;3.20;;
21820;SDS011;11073;48.586;12.066;2022-08-03T07:07:23;4.82;;;3.22;;
21820;SDS011;11073;48.586;12.066;2022-08-03T07:09:52;7.70;;;2.70;;
21820;SDS011;11073;48.586;12.066;2022-08-03T07:12:26;6.28;;;3.03;;
21820;SDS011;11073;48.586;12.066;2022-08-03T07:14:55;4.35;;;2.78;;
21820;SDS011;11073;48.586;12.066;2022-08-03T07:17:29;5.53;;;2.42;;
21820;SDS011;11073;48.586;12.066;2022-08-03T07:19:59;10.07;;;2.72;;
21820;SDS011;11073;48.586;12.066;2022-08-03T07:22:29;4.30;;;2.17;;
21820;SDS011;11073;48.586;12.066;2022-08-03T07:24:58;4.15;;;2.58;;
21820;SDS011;11073;48.586;12.066;2022-08-03T07:27:29;3.38;;;2.08;;
21820;SDS011;11073;48.586;12.066;2022-08-03T07:29:58;3.97;;;2.40;;
21820;SDS011;11073;48.586;12.066;2022-08-03T07:32:27;5.07;;;2.60;;
21820;SDS011;11073;48.586;12.066;2022-08-03T07:34:57;7.35;;;2.72;;
21820;SDS011;11073;48.586;12.066;2022-08-03T07:37:27;4.47;;;2.80;;
21820;SDS011;11073;48.586;12.066;2022-08-03T07:39:57;4.53;;;2.63;;
21820;SDS011;11073;48.586;12.066;2022-08-03T07:42:26;4.10;;;2.75;;
21820;SDS011;11073;48.586;12.066;2022-08-03T07:44:57;5.32;;;2.25;;
21820;SDS011;11073;48.586;12.066;2022-08-03T07:47:26;5.32;;;2.85;;
21820;SDS011;11073;48.586;12.066;2022-08-03T07:50:03;3.70;;;2.45;;
21820;SDS011;11073;48.586;12.066;2022-08-03T07:52:35;6.30;;;2.63;;
21820;SDS011;11073;48.586;12.066;2022-08-03T07:55:17;3.40;;;2.13;;
21820;SDS011;11073;48.586;12.066;2022-08-03T07:57:46;4.85;;;2.40;;
21820;SDS011;11073;48.586;12.066;2022-08-03T08:00:17;4.95;;;2.60;;
21820;SDS011;11073;48.586;12.066;2022-08-03T08:02:46;6.85;;;2.53;;
21820;SDS011;11073;48.586;12.066;2022-08-03T08:05:14;3.92;;;2.40;;
21820;SDS011;11073;48.586;12.066;2022-08-03T08:07:44;3.83;;;2.00;;
21820;SDS011;11073;48.586;12.066;2022-08-03T08:10:17;2.80;;;1.60;;
21820;SDS011;11073;48.586;12.066;2022-08-03T08:12:46;4.57;;;1.80;;
21820;SDS011;11073;48.586;12.066;2022-08-03T08:15:17;3.38;;;2.08;;
21820;SDS011;11073;48.586;12.066;2022-08-03T08:17:46;3.55;;;1.75;;
21820;SDS011;11073;48.586;12.066;2022-08-03T08:20:17;3.88;;;1.80;;
21820;SDS011;11073;48.586;12.066;2022-08-03T08:22:55;3.88;;;2.13;;
21820;SDS011;11073;48.586;12.066;2022-08-03T08:25:28;6.18;;;1.80;;
21820;SDS011;11073;48.586;12.066;2022-08-03T08:27:58;3.72;;;2.05;;
21820;SDS011;11073;48.586;12.066;2022-08-03T08:30:50;4.00;;;2.03;;
21820;SDS011;11073;48.586;12.066;2022-08-03T08:33:19;4.82;;;2.20;;
21820;SDS011;11073;48.586;12.066;2022-08-03T08:35:50;3.65;;;2.00;;
21820;SDS011;11073;48.586;12.066;2022-08-03T08:38:20;9.05;;;2.58;;
21820;SDS011;11073;48.586;12.066;2022-08-03T08:40:49;2.92;;;2.50;;
21820;SDS011;11073;48.586;12.066;2022-08-03T08:43:18;4.47;;;1.83;;
21820;SDS011;11073;48.586;12.066;2022-08-03T08:45:47;3.63;;;1.88;;
21820;SDS011;11073;48.586;12.066;2022-08-03T08:48:23;2.60;;;1.98;;
21820;SDS011;11073;48.586;12.066;2022-08-03T08:50:53;3.63;;;1.80;;
21820;SDS011;11073;48.586;12.066;2022-08-03T08:53:24;2.83;;;1.80;;
21820;SDS011;11073;48.586;12.066;2022-08-03T08:55:54;4.22;;;1.52;;
21820;SDS011;11073;48.586;12.066;2022-08-03T08:58:31;2.47;;;1.50;;
21820;SDS011;11073;48.586;12.066;2022-08-03T09:01:06;3.70;;;1.55;;
21820;SDS011;11073;48.586;12.066;2022-08-03T09:03:35;5.28;;;1.75;;
21820;SDS011;11073;48.586;12.066;2022-08-03T09:06:04;3.28;;;1.33;;
21820;SDS011;11073;48.586;12.066;2022-08-03T09:08:32;2.72;;;1.40;;
21820;SDS011;11073;48.586;12.066;2022-08-03T09:11:01;1.52;;;1.33;;
21820;SDS011;11073;48.586;12.066;2022-08-03T09:13:30;2.00;;;1.60;;
21820;SDS011;11073;48.586;12.066;2022-08-03T09:16:12;2.90;;;1.63;;
21820;SDS011;11073;48.586;12.066;2022-08-03T09:18:42;4.40;;;1.50;;
21820;SDS011;11073;48.586;12.066;2022-08-03T09:21:12;2.55;;;1.70;;
21820;SDS011;11073;48.586;12.066;2022-08-03T09:24:03;1.98;;;1.55;;
21820;SDS011;11073;48.586;12.066;2022-08-03T09:26:48;2.92;;;1.35;;
21820;SDS011;11073;48.586;12.066;2022-08-03T09:29:20;4.35;;;1.60;;
21820;SDS011;11073;48.586;12.066;2022-08-03T09:31:58;3.85;;;1.60;;
21820;SDS011;11073;48.586;12.066;2022-08-03T09:34:29;1.35;;;1.20;;
21820;SDS011;11073;48.586;12.066;2022-08-03T09:36:58;1.63;;;1.50;;
21820;SDS011;11073;48.586;12.066;2022-08-03T09:39:26;1.73;;;1.35;;
21820;SDS011;11073;48.586;12.066;2022-08-03T09:42:09;3.60;;;1.80;;
21820;SDS011;11073;48.586;12.066;2022-08-03T09:44:41;6.07;;;1.60;;
21820;SDS011;11073;48.586;12.066;2022-08-03T09:47:14;11.18;;;1.85;;
21820;SDS011;11073;48.586;12.066;2022-08-03T09:49:57;7.25;;;1.90;;
21820;SDS011;11073;48.586;12.066;2022-08-03T09:52:31;1.23;;;1.13;;
21820;SDS011;11073;48.586;12.066;2022-08-03T09:55:16;12.82;;;1.63;;
21820;SDS011;11073;48.586;12.066;2022-08-03T09:58:06;1.55;;;1.10;;
21820;SDS011;11073;48.586;12.066;2022-08-03T10:00:51;1.63;;;1.20;;
21820;SDS011;11073;48.586;12.066;2022-08-03T10:03:23;1.80;;;1.30;;
21820;SDS011;11073;48.586;12.066;2022-08-03T10:05:54;1.40;;;1.30;;
21820;SDS011;11073;48.586;12.066;2022-08-03T10:08:26;2.15;;;1.50;;
21820;SDS011;11073;48.586;12.066;2022-08-03T10:10:55;6.38;;;1.42;;
21820;SDS011;11073;48.586;12.066;2022-08-03T10:13:24;1.90;;;1.42;;
21820;SDS011;11073;48.586;12.066;2022-08-03T10:15:54;2.13;;;1.40;;
21820;SDS011;11073;48.586;12.066;2022-08-03T10:18:44;14.30;;;2.33;;
21820;SDS011;11073;48.586;12.066;2022-08-03T10:21:15;2.30;;;1.30;;
21820;SDS011;11073;48.586;12.066;2022-08-03T10:23:46;1.80;;;1.08;;
21820;SDS011;11073;48.586;12.066;2022-08-03T10:26:18;9.68;;;1.70;;
21820;SDS011;11073;48.586;12.066;2022-08-03T10:28:52;2.22;;;1.70;;
21820;SDS011;11073;48.586;12.066;2022-08-03T10:31:24;1.25;;;1.15;;
21820;SDS011;11073;48.586;12.066;2022-08-03T10:34:00;1.42;;;1.33;;
21820;SDS011;11073;48.586;12.066;2022-08-03T10:36:32;2.13;;;1.50;;
21820;SDS011;11073;48.586;12.066;2022-08-03T10:39:04;1.40;;;1.27;;
21820;SDS011;11073;48.586;12.066;2022-08-03T10:41:42;1.95;;;1.50;;
21820;SDS011;11073;48.586;12.066;2022-08-03T10:44:16;1.20;;;1.10;;
21820;SDS011;11073;48.586;12.066;2022-08-03T10:46:46;4.40;;;1.65;;
21820;SDS011;11073;48.586;12.066;2022-08-03T10:49:17;2.42;;;1.55;;
21820;SDS011;11073;48.586;12.066;2022-08-03T10:52:02;4.30;;;1.40;;
21820;SDS011;11073;48.586;12.066;2022-08-03T10:54:52;1.40;;;1.30;;
21820;SDS011;11073;48.586;12.066;2022-08-03T10:57:43;14.35;;;1.85;;
21820;SDS011;11073;48.586;12.066;2022-08-03T11:00:22;5.05;;;1.17;;
21820;SDS011;11073;48.586;12.066;2022-08-03T11:03:02;4.63;;;1.40;;
21820;SDS011;11073;48.586;12.066;2022-08-03T11:05:34;3.25;;;1.30;;
21820;SDS011;11073;48.586;12.066;2022-08-03T11:08:24;55.45;;;4.72;;
21820;SDS011;11073;48.586;12.066;2022-08-03T11:10:58;4.55;;;1.17;;
21820;SDS011;11073;48.586;12.066;2022-08-03T11:13:29;2.00;;;1.50;;
21820;SDS011;11073;48.586;12.066;2022-08-03T11:16:01;4.72;;;1.52;;
21820;SDS011;11073;48.586;12.066;2022-08-03T11:18:54;50.25;;;5.35;;
21820;SDS011;11073;48.586;12.066;2022-08-03T11:27:26;1.27;;;1.17;;
21820;SDS011;11073;48.586;12.066;2022-08-03T11:29:57;8.07;;;1.98;;
21820;SDS011;11073;48.586;12.066;2022-08-03T11:35:19;6.80;;;1.50;;
21820;SDS011;11073;48.586;12.066;2022-08-03T11:38:06;1.90;;;1.30;;
21820;SDS011;11073;48.586;12.066;2022-08-03T11:40:38;2.15;;;1.27;;
21820;SDS011;11073;48.586;12.066;2022-08-03T11:43:08;3.00;;;1.40;;
21820;SDS011;11073;48.586;12.066;2022-08-03T11:45:59;1.45;;;1.17;;
21820;SDS011;11073;48.586;12.066;2022-08-03T11:48:32;3.13;;;1.30;;
21820;SDS011;11073;48.586;12.066;2022-08-03T11:51:03;1.45;;;1.13;;
21820;SDS011;11073;48.586;12.066;2022-08-03T11:53:35;5.65;;;1.60;;
21820;SDS011;11073;48.586;12.066;2022-08-03T11:56:08;20.30;;;1.90;;
21820;SDS011;11073;48.586;12.066;2022-08-03T11:58:45;5.85;;;1.63;;
21820;SDS011;11073;48.586;12.066;2022-08-03T12:01:34;6.43;;;1.38;;
21820;SDS011;11073;48.586;12.066;2022-08-03T12:04:04;7.70;;;1.35;;
21820;SDS011;11073;48.586;12.066;2022-08-03T12:06:33;2.28;;;1.10;;
21820;SDS011;11073;48.586;12.066;2022-08-03T12:09:22;2.45;;;1.40;;
21820;SDS011;11073;48.586;12.066;2022-08-03T12:11:50;4.68;;;1.02;;
21820;SDS011;11073;48.586;12.066;2022-08-03T12:14:25;84.35;;;5.97;;
21820;SDS011;11073;48.586;12.066;2022-08-03T12:17:15;6.85;;;1.25;;
21820;SDS011;11073;48.586;12.066;2022-08-03T12:19:44;3.85;;;1.50;;
21820;SDS011;11073;48.586;12.066;2022-08-03T12:22:13;8.70;;;1.48;;
21820;SDS011;11073;48.586;12.066;2022-08-03T12:24:44;4.93;;;1.35;;
21820;SDS011;11073;48.586;12.066;2022-08-03T12:27:21;14.60;;;1.98;;
21820;SDS011;11073;48.586;12.066;2022-08-03T12:29:51;1.58;;;1.02;;
21820;SDS011;11073;48.586;12.066;2022-08-03T12:32:24;1.25;;;1.15;;
21820;SDS011;11073;48.586;12.066;2022-08-03T12:34:53;2.42;;;1.48;;
21820;SDS011;11073;48.586;12.066;2022-08-03T12:37:26;2.22;;;0.95;;
21820;SDS011;11073;48.586;12.066;2022-08-03T12:39:57;2.15;;;1.20;;
21820;SDS011;11073;48.586;12.066;2022-08-03T12:42:37;1.42;;;1.13;;
21820;SDS011;11073;48.586;12.066;2022-08-03T12:45:20;2.22;;;1.30;;
21820;SDS011;11073;48.586;12.066;2022-08-03T12:47:50;2.15;;;1.30;;
21820;SDS011;11073;48.586;12.066;2022-08-03T12:50:27;1.20;;;1.10;;
21820;SDS011;11073;48.586;12.066;2022-08-03T12:52:58;3.47;;;1.15;;
21820;SDS011;11073;48.586;12.066;2022-08-03T12:55:28;1.42;;;1.33;;
21820;SDS011;11073;48.586;12.066;2022-08-03T12:58:30;4.95;;;1.40;;
21820;SDS011;11073;48.586;12.066;2022-08-03T13:01:02;4.72;;;1.30;;
21820;SDS011;11073;48.586;12.066;2022-08-03T13:03:40;3.13;;;1.13;;
21820;SDS011;11073;48.586;12.066;2022-08-03T13:06:16;1.20;;;1.10;;
21820;SDS011;11073;48.586;12.066;2022-08-03T13:08:46;2.67;;;1.10;;
21820;SDS011;11073;48.586;12.066;2022-08-03T13:11:23;2.65;;;0.95;;
21820;SDS011;11073;48.586;12.066;2022-08-03T13:14:13;5.68;;;1.25;;
21820;SDS011;11073;48.586;12.066;2022-08-03T13:16:46;1.35;;;1.20;;
21820;SDS011;11073;48.586;12.066;2022-08-03T13:19:15;16.38;;;2.17;;
21820;SDS011;11073;48.586;12.066;2022-08-03T13:21:44;5.53;;;1.30;;
21820;SDS011;11073;48.586;12.066;2022-08-03T13:24:30;1.30;;;1.20;;
21820;SDS011;11073;48.586;12.066;2022-08-03T13:27:01;1.80;;;1.30;;
21820;SDS011;11073;48.586;12.066;2022-08-03T13:29:53;1.40;;;1.30;;
21820;SDS011;11073;48.586;12.066;2022-08-03T13:32:22;3.83;;;1.30;;
21820;SDS011;11073;48.586;12.066;2022-08-03T13:34:52;13.65;;;1.95;;
21820;SDS011;11073;48.586;12.066;2022-08-03T13:37:21;11.77;;;1.85;;
21820;SDS011;11073;48.586;12.066;2022-08-03T13:39:50;3.22;;;1.15;;
21820;SDS011;11073;48.586;12.066;2022-08-03T13:42:28;2.83;;;1.35;;
21820;SDS011;11073;48.586;12.066;2022-08-03T13:44:58;9.00;;;1.63;;
21820;SDS011;11073;48.586;12.066;2022-08-03T13:47:27;6.78;;;1.98;;
21820;SDS011;11073;48.586;12.066;2022-08-03T13:49:56;5.18;;;1.42;;
21820;SDS011;11073;48.586;12.066;2022-08-03T13:52:29;3.03;;;1.23;;
21820;SDS011;11073;48.586;12.066;2022-08-03T13:54:58;3.72;;;1.20;;
21820;SDS011;11073;48.586;12.066;2022-08-03T13:57:28;2.33;;;1.10;;
21820;SDS011;11073;48.586;12.066;2022-08-03T14:00:17;1.38;;;1.10;;
21820;SDS011;11073;48.586;12.066;2022-08-03T14:02:54;2.25;;;1.50;;
21820;SDS011;11073;48.586;12.066;2022-08-03T14:05:39;1.83;;;1.27;;
21820;SDS011;11073;48.586;12.066;2022-08-03T14:08:08;8.05;;;1.85;;
21820;SDS011;11073;48.586;12.066;2022-08-03T14:10:38;6.45;;;1.70;;
21820;SDS011;11073;48.586;12.066;2022-08-03T14:13:09;2.10;;;1.50;;
21820;SDS011;11073;48.586;12.066;2022-08-03T14:15:38;10.32;;;2.20;;
21820;SDS011;11073;48.586;12.066;2022-08-03T14:18:06;3.08;;;1.17;;
21820;SDS011;11073;48.586;12.066;2022-08-03T14:20:42;4.03;;;1.60;;
21820;SDS011;11073;48.586;12.066;2022-08-03T14:23:20;7.90;;;1.70;;
21820;SDS011;11073;48.586;12.066;2022-08-03T14:25:50;1.73;;;1.40;;
21820;SDS011;11073;48.586;12.066;2022-08-03T14:28:20;2.67;;;1.50;;
21820;SDS011;11073;48.586;12.066;2022-08-03T14:30:50;11.25;;;1.40;;
21820;SDS011;11073;48.586;12.066;2022-08-03T14:33:20;3.33;;;1.40;;
21820;SDS011;11073;48.586;12.066;2022-08-03T14:35:50;1.20;;;1.10;;
21820;SDS011;11073;48.586;12.066;2022-08-03T14:38:19;1.45;;;1.10;;
21820;SDS011;11073;48.586;12.066;2022-08-03T14:40:48;5.80;;;1.15;;
21820;SDS011;11073;48.586;12.066;2022-08-03T14:43:17;11.27;;;2.63;;
21820;SDS011;11073;48.586;12.066;2022-08-03T14:45:49;9.18;;;1.50;;
21820;SDS011;11073;48.586;12.066;2022-08-03T14:48:18;11.70;;;1.85;;
21820;SDS011;11073;48.586;12.066;2022-08-03T14:51:07;4.40;;;1.40;;
21820;SDS011;11073;48.586;12.066;2022-08-03T14:53:36;1.30;;;1.20;;
21820;SDS011;11073;48.586;12.066;2022-08-03T14:56:05;1.73;;;1.10;;
21820;SDS011;11073;48.586;12.066;2022-08-03T14:58:36;2.35;;;1.25;;
21820;SDS011;11073;48.586;12.066;2022-08-03T15:01:06;2.60;;;1.25;;
21820;SDS011;11073;48.586;12.066;2022-08-03T15:03:55;2.88;;;1.50;;
21820;SDS011;11073;48.586;12.066;2022-08-03T15:06:24;1.40;;;1.27;;
21820;SDS011;11073;48.586;12.066;2022-08-03T15:08:52;1.40;;;1.30;;
21820;SDS011;11073;48.586;12.066;2022-08-03T15:11:41;1.98;;;1.30;;
21820;SDS011;11073;48.586;12.066;2022-08-03T15:14:10;7.80;;;1.40;;
21820;SDS011;11073;48.586;12.066;2022-08-03T15:16:42;2.22;;;1.20;;
21820;SDS011;11073;48.586;12.066;2022-08-03T15:19:11;3.28;;;1.20;;